Time;durP1;ratioP1;P1;durP2;ratioP2;P2;SDS_P1;SDS_P2;PMS_P1;PMS_P2;Temp;Humidity;BMP_temperature;BMP_pressure;BME280_temperature;BME280_humidity;BME280_pressure;Samples;Min_cycle;Max_cycle;Signal;HPM_P1;HPM_P2
2022/01/22 10:28:50;;;;;;;20.05;14.20;;;;;;;6.24;55.52;102215.19;12395927;23;20376;31
2022/01/22 10:34:11;;;;;;;20.63;14.50;;;;;;;5.93;55.69;102214.22;10070473;29;20513;-83
2022/01/22 10:39:33;;;;;;;19.77;13.70;;;;;;;5.44;56.95;102222.78;10050882;29;20275;-83
2022/01/22 10:44:46;;;;;;;21.27;12.87;;;;;;;6.10;55.48;102220.47;10060533;29;20266;-82
2022/01/22 10:49:49;;;;;;;15.90;11.10;;;;;;;5.57;56.68;102227.94;10051370;29;20245;-81
2022/01/22 10:55:00;;;;;;;16.50;12.23;;;;;;;5.38;58.10;102229.47;10052572;29;20318;-85
2022/01/22 11:00:04;;;;;;;16.77;12.93;;;;;;;5.64;56.37;102238.94;10052983;29;20277;-81
2022/01/22 11:05:07;;;;;;;16.30;12.87;;;;;;;5.81;56.12;102232.06;10052073;29;20226;-84
2022/01/22 11:10:09;;;;;;;18.23;13.13;;;;;;;6.85;53.18;102219.09;10040506;29;20263;-82
2022/01/22 11:15:11;;;;;;;20.20;13.60;;;;;;;6.54;53.55;102215.34;10040891;29;20251;-83
2022/01/22 11:20:14;;;;;;;16.63;12.97;;;;;;;6.70;53.02;102219.06;10051344;29;20370;-82
2022/01/22 11:25:16;;;;;;;20.17;14.20;;;;;;;7.53;51.30;102220.59;10051872;29;20279;-82
2022/01/22 11:30:25;;;;;;;20.33;14.93;;;;;;;7.19;51.18;102217.50;10018809;29;20577;-83
2022/01/22 11:35:49;;;;;;;20.80;14.20;;;;;;;7.10;51.55;102227.63;10033289;29;20283;-83
2022/01/22 11:41:21;;;;;;;18.43;13.30;;;;;;;6.33;54.35;102231.25;10021121;29;20304;-83
2022/01/22 11:46:29;;;;;;;15.80;12.40;;;;;;;7.28;51.82;102225.38;10033488;29;20231;-84
2022/01/22 11:51:32;;;;;;;14.67;10.30;;;;;;;6.42;52.93;102228.78;10035668;29;20870;-81
2022/01/22 11:57:01;;;;;;;12.37;8.83;;;;;;;6.05;54.45;102231.69;10034242;29;20672;-84
2022/01/22 12:02:05;;;;;;;14.77;8.63;;;;;;;7.28;51.88;102214.09;10035824;29;20246;-81
2022/01/22 12:07:07;;;;;;;11.90;8.33;;;;;;;6.17;53.85;102215.47;10040518;29;20287;-84
2022/01/22 12:17:50;;;;;;;8.20;6.63;;;;;;;5.95;55.05;102215.59;10044151;29;20238;-83
2022/01/22 12:22:52;;;;;;;9.23;6.77;;;;;;;7.31;51.32;102207.94;10043518;29;20262;-83
2022/01/22 12:27:55;;;;;;;10.57;6.67;;;;;;;6.38;53.31;102206.00;10036738;29;20833;-82
2022/01/22 12:32:59;;;;;;;8.57;5.73;;;;;;;5.54;55.27;102211.66;10035808;29;20671;-82
2022/01/22 12:38:21;;;;;;;4.80;4.30;;;;;;;6.03;54.32;102219.88;10053978;29;20245;-84
2022/01/22 12:43:32;;;;;;;4.57;3.70;;;;;;;5.95;54.04;102206.34;10041949;29;20231;-83
2022/01/22 12:48:36;;;;;;;3.37;2.97;;;;;;;7.08;52.07;102204.53;10043216;29;20231;-82
2022/01/22 12:53:47;;;;;;;5.20;2.07;;;;;;;6.79;52.27;102206.16;10038883;29;20349;-83
2022/01/22 12:58:49;;;;;;;3.77;2.47;;;;;;;7.66;49.77;102202.28;10036815;29;20313;-82
2022/01/22 13:03:55;;;;;;;5.17;2.60;;;;;;;7.74;49.66;102200.91;10042832;29;20318;-83
2022/01/22 13:08:57;;;;;;;3.60;2.40;;;;;;;6.78;51.97;102210.94;10035309;29;20619;-81
2022/01/22 13:14:17;;;;;;;4.67;2.63;;;;;;;7.69;49.58;102218.59;10041611;29;20254;-84
2022/01/22 13:19:20;;;;;;;3.73;2.70;;;;;;;6.44;52.93;102227.41;10028239;29;20262;-81
2022/01/22 13:24:25;;;;;;;7.27;3.37;;;;;;;6.28;54.35;102233.22;10044833;29;20296;-83
2022/01/22 13:29:30;;;;;;;4.73;3.37;;;;;;;5.90;55.20;102231.59;10056755;29;20654;-81
2022/01/22 13:34:52;;;;;;;5.20;4.17;;;;;;;6.48;52.88;102234.13;10044521;29;20323;-82
2022/01/22 13:40:26;;;;;;;5.30;3.43;;;;;;;6.12;54.75;102237.88;10049355;29;20242;-84
2022/01/22 13:50:51;;;;;;;6.07;3.30;;;;;;;6.10;53.79;102234.50;10050170;29;20307;-82
2022/01/22 13:56:01;;;;;;;3.53;2.50;;;;;;;6.29;53.90;102232.09;10051004;29;20257;-82
2022/01/22 14:01:18;;;;;;;2.77;2.37;;;;;;;5.34;57.81;102239.53;10037688;29;20777;-85
2022/01/22 14:06:32;;;;;;;1.70;1.60;;;;;;;4.83;59.04;102244.63;10034651;29;20234;-84
2022/01/22 14:11:35;;;;;;;3.10;2.10;;;;;;;5.17;57.84;102250.00;10033545;29;20291;-85
2022/01/22 14:16:44;;;;;;;3.87;2.30;;;;;;;6.42;53.50;102235.25;10062258;29;20286;-82
2022/01/22 14:21:57;;;;;;;2.50;2.30;;;;;;;6.61;53.39;102226.31;10071642;29;20238;-82
2022/01/22 14:26:59;;;;;;;6.33;3.13;;;;;;;6.40;54.49;102231.00;10044514;29;20680;-81
2022/01/22 14:32:01;;;;;;;6.17;3.90;;;;;;;7.03;52.16;102229.00;10041087;29;20304;-80
2022/01/22 14:37:05;;;;;;;6.33;3.70;;;;;;;5.70;55.95;102230.31;10034919;29;20333;-80
2022/01/22 14:47:29;;;;;;;6.43;3.53;;;;;;;6.95;52.44;102210.72;10040144;29;20229;-82
2022/01/22 14:52:32;;;;;;;9.37;4.03;;;;;;;5.69;55.58;102227.78;10035959;29;20690;-83
2022/01/22 14:57:36;;;;;;;4.87;3.83;;;;;;;6.68;53.02;102218.47;10051123;29;20258;-84
2022/01/22 15:02:39;;;;;;;4.73;3.87;;;;;;;5.89;54.43;102224.28;10036445;29;20242;-83
2022/01/22 15:07:44;;;;;;;5.67;4.00;;;;;;;6.04;54.38;102236.47;10049532;29;20226;-84
2022/01/22 15:12:48;;;;;;;7.27;4.50;;;;;;;5.64;55.27;102250.16;10044160;29;21596;-82
2022/01/22 15:18:38;;;;;;;8.60;4.73;;;;;;;6.25;54.21;102245.81;10044355;29;20274;-82
2022/01/22 15:23:29;;;;;;;10.37;4.93;;;;;;;6.17;53.68;102244.41;10050900;29;20267;-80
2022/01/22 15:28:42;;;;;;;6.73;4.60;;;;;;;5.81;54.25;102240.50;10046978;29;20265;-81
2022/01/22 15:33:52;;;;;;;6.73;4.83;;;;;;;6.47;52.69;102232.44;10049148;29;20266;-81
2022/01/22 15:38:55;;;;;;;11.33;5.53;;;;;;;6.89;51.62;102217.44;10044024;29;20263;-83
2022/01/22 15:43:57;;;;;;;14.33;5.83;;;;;;;7.02;51.12;102228.16;10038627;29;20269;-82
2022/01/22 15:49:02;;;;;;;9.10;5.53;;;;;;;6.33;52.72;102231.25;10056088;29;20230;-83
2022/01/22 15:54:04;;;;;;;11.10;6.87;;;;;;;6.80;50.98;102224.72;10038767;29;20294;-79
2022/01/22 15:59:07;;;;;;;13.87;7.60;;;;;;;6.75;51.32;102233.13;10043032;29;20258;-83
2022/01/22 16:04:12;;;;;;;14.43;7.50;;;;;;;7.32;49.91;102237.75;10042933;29;20294;-82
2022/01/22 16:09:17;;;;;;;11.30;8.00;;;;;;;6.78;51.51;102232.59;10026647;29;20238;-80
2022/01/22 16:14:39;;;;;;;12.97;7.37;;;;;;;6.85;50.61;102238.78;10022985;29;20309;-81
2022/01/22 16:19:42;;;;;;;11.03;6.90;;;;;;;7.02;50.28;102236.59;10024619;29;20302;-80
2022/01/22 16:24:44;;;;;;;13.93;7.70;;;;;;;6.94;50.37;102239.09;10040192;29;20294;-83
2022/01/22 16:29:46;;;;;;;11.93;6.93;;;;;;;7.71;48.73;102246.47;10019462;29;20275;-80
2022/01/22 16:34:49;;;;;;;11.90;8.73;;;;;;;6.96;50.72;102253.75;10034974;29;20254;-81
2022/01/22 16:39:55;;;;;;;12.77;9.40;;;;;;;7.07;50.54;102261.91;10041386;29;20238;-80
2022/01/22 16:55:37;;;;;;;14.70;10.33;;;;;;;6.78;51.32;102261.53;10019174;29;20262;-81
2022/01/22 17:00:45;;;;;;;15.70;8.60;;;;;;;6.26;52.80;102275.59;10043172;29;20270;-81
2022/01/22 17:05:49;;;;;;;15.87;9.00;;;;;;;7.14;50.79;102270.91;10039184;29;20234;-83
2022/01/22 17:11:06;;;;;;;16.83;10.20;;;;;;;7.07;50.39;102275.13;10041943;29;20245;-83
2022/01/22 17:16:08;;;;;;;16.27;9.70;;;;;;;7.44;49.33;102274.91;10041344;29;20274;-84
2022/01/22 17:21:11;;;;;;;14.03;9.57;;;;;;;7.23;49.72;102285.31;10028782;29;20298;-82
2022/01/22 17:26:13;;;;;;;14.80;9.87;;;;;;;7.20;49.84;102286.69;10037907;29;20239;-83
2022/01/22 17:31:21;;;;;;;13.33;10.17;;;;;;;7.43;49.20;102290.09;10052513;29;20594;-81
2022/01/22 17:36:23;;;;;;;14.50;10.43;;;;;;;7.47;48.82;102291.25;10050737;29;21442;-80
2022/01/22 17:41:26;;;;;;;14.93;9.50;;;;;;;7.02;50.31;102294.78;10056560;29;20242;-83
2022/01/22 17:46:31;;;;;;;15.43;11.03;;;;;;;7.39;49.19;102300.22;10059046;29;20238;-84
2022/01/22 17:51:33;;;;;;;16.17;10.67;;;;;;;7.28;49.67;102290.06;10053661;29;20589;-82
2022/01/22 17:56:35;;;;;;;18.63;11.77;;;;;;;6.84;50.90;102296.16;10051351;29;20314;-82
2022/01/22 18:01:37;;;;;;;17.77;12.90;;;;;;;6.75;51.32;102297.78;10057555;29;20310;-81
2022/01/22 18:06:40;;;;;;;18.70;13.00;;;;;;;7.24;49.91;102293.44;10045444;29;20234;-83
2022/01/22 18:11:45;;;;;;;20.13;13.37;;;;;;;7.42;49.52;102282.78;10036953;29;20267;-82
2022/01/22 18:16:48;;;;;;;24.40;14.40;;;;;;;7.32;49.55;102288.41;10046562;29;20326;-85
2022/01/22 18:21:52;;;;;;;22.03;12.93;;;;;;;7.58;48.88;102292.94;10048509;29;20246;-83
2022/01/22 18:26:54;;;;;;;24.57;14.57;;;;;;;7.14;50.16;102287.78;10041904;29;20234;-83
2022/01/22 18:31:56;;;;;;;23.63;14.77;;;;;;;6.86;51.23;102294.75;10051164;29;20651;-84
2022/01/22 18:37:01;;;;;;;27.57;15.40;;;;;;;6.43;52.40;102281.03;10054887;29;20258;-83
2022/01/22 18:42:05;;;;;;;25.90;15.63;;;;;;;7.12;50.54;102273.16;10040724;29;20263;-83
2022/01/22 18:47:07;;;;;;;25.43;17.27;;;;;;;7.18;50.37;102266.44;10047325;29;20252;-83
2022/01/22 18:52:10;;;;;;;31.97;17.70;;;;;;;6.69;51.90;102279.19;10034034;29;20525;-85
2022/01/22 18:57:12;;;;;;;31.60;19.87;;;;;;;6.89;51.58;102279.28;10054810;29;20643;-84
2022/01/22 19:02:14;;;;;;;35.07;21.37;;;;;;;6.98;51.32;102285.25;10050418;29;20298;-84
2022/01/22 19:07:17;;;;;;;36.03;22.23;;;;;;;6.78;51.79;102280.38;10038400;29;20218;-85
2022/01/22 19:12:20;;;;;;;36.87;21.63;;;;;;;6.79;51.95;102291.34;10050286;29;20238;-83
2022/01/22 19:17:22;;;;;;;36.23;22.47;;;;;;;7.48;49.81;102290.13;10047370;29;20263;-83
2022/01/22 19:32:48;;;;;;;37.90;23.97;;;;;;;7.03;50.73;102286.09;10049818;29;20639;-83
2022/01/22 19:37:50;;;;;;;41.20;27.07;;;;;;;5.72;54.49;102297.41;10053051;29;20258;-82
2022/01/22 19:42:54;;;;;;;43.57;27.93;;;;;;;6.21;53.94;102314.03;10047137;29;20237;-82
2022/01/22 19:47:56;;;;;;;41.47;24.47;;;;;;;6.50;51.90;102316.19;10043237;29;20233;-82
2022/01/22 19:53:01;;;;;;;38.30;25.10;;;;;;;5.75;55.45;102320.16;10048716;29;20611;-84
2022/01/22 19:58:04;;;;;;;42.70;25.80;;;;;;;7.01;51.47;102310.81;10050677;29;20315;-82
2022/01/22 20:03:08;;;;;;;45.33;27.27;;;;;;;6.89;51.40;102313.03;10048925;29;20203;-82
2022/01/22 20:08:15;;;;;;;43.57;27.53;;;;;;;6.96;50.93;102316.44;10054460;29;20235;-83
2022/01/22 20:13:18;;;;;;;45.70;28.03;;;;;;;6.96;51.08;102296.75;10030182;29;20238;-81
2022/01/22 20:18:23;;;;;;;52.33;30.07;;;;;;;6.43;52.49;102303.53;10032888;29;20313;-83
2022/01/22 20:23:26;;;;;;;43.33;28.80;;;;;;;5.66;54.86;102310.56;10049946;29;20238;-86
2022/01/22 20:28:29;;;;;;;49.73;30.23;;;;;;;6.58;51.75;102300.78;10051074;29;20302;-81
2022/01/22 20:33:31;;;;;;;41.10;27.60;;;;;;;6.19;52.13;102308.72;10037697;29;20262;-83
2022/01/22 20:38:34;;;;;;;45.17;27.93;;;;;;;5.89;52.80;102294.47;10048676;29;20282;-82
2022/01/22 20:43:38;;;;;;;45.13;27.30;;;;;;;5.94;53.71;102283.28;10035629;29;20234;-84
2022/01/22 20:48:40;;;;;;;41.57;26.40;;;;;;;6.85;51.28;102272.50;10037944;29;20688;-83
2022/01/22 20:53:45;;;;;;;45.37;28.80;;;;;;;5.64;54.39;102289.44;10050279;29;20279;-84
2022/01/22 20:58:47;;;;;;;46.30;27.80;;;;;;;6.47;51.83;102302.69;10046992;29;20319;-82
2022/01/22 21:03:59;;;;;;;43.87;27.10;;;;;;;6.42;51.94;102297.06;10052258;29;20210;-82
2022/01/22 21:09:03;;;;;;;41.73;26.40;;;;;;;6.11;53.37;102312.88;10052791;29;20687;-82
2022/01/22 21:14:06;;;;;;;42.10;26.50;;;;;;;6.48;51.90;102320.38;10047631;29;20238;-82
2022/01/22 21:19:13;;;;;;;47.43;27.80;;;;;;;5.72;53.72;102322.66;10051652;29;20253;-80
2022/01/22 21:24:15;;;;;;;40.00;26.10;;;;;;;6.88;50.78;102315.00;10051896;29;20238;-84
2022/01/22 21:29:18;;;;;;;44.77;27.53;;;;;;;6.03;53.29;102320.97;10052888;29;20310;-80
2022/01/22 21:34:22;;;;;;;47.83;30.00;;;;;;;5.85;53.59;102325.00;10058707;29;20241;-83
2022/01/22 21:39:42;;;;;;;45.80;28.67;;;;;;;6.75;50.87;102309.03;10059002;29;20266;-81
2022/01/22 21:44:44;;;;;;;51.13;30.33;;;;;;;6.01;53.40;102324.03;10059038;29;20271;-83
2022/01/22 21:49:47;;;;;;;49.37;30.33;;;;;;;5.98;53.33;102306.88;10058671;29;20268;-83
2022/01/22 21:54:52;;;;;;;45.40;28.63;;;;;;;6.41;52.19;102300.97;10058559;29;20607;-82
2022/01/22 21:59:54;;;;;;;46.83;29.20;;;;;;;6.46;51.46;102311.38;10051875;29;20733;-82
2022/01/22 22:04:57;;;;;;;50.27;31.87;;;;;;;6.40;52.20;102310.53;10058531;29;20255;-82
2022/01/22 22:09:59;;;;;;;52.93;31.23;;;;;;;6.57;51.26;102304.72;10057687;29;20206;-82
2022/01/22 22:15:01;;;;;;;54.17;32.13;;;;;;;6.61;50.92;102290.94;10057890;29;20270;-83
2022/01/22 22:20:05;;;;;;;53.10;31.27;;;;;;;5.41;54.07;102301.88;10052249;29;20242;-83
2022/01/22 22:25:08;;;;;;;58.10;32.63;;;;;;;6.22;52.79;102308.16;10059152;29;20350;-82
2022/01/22 22:30:11;;;;;;;53.53;31.67;;;;;;;6.13;52.63;102318.22;10057863;29;20277;-83
2022/01/22 22:35:14;;;;;;;50.47;31.40;;;;;;;6.40;52.10;102315.28;10058283;29;20215;-84
2022/01/22 22:40:21;;;;;;;55.77;32.50;;;;;;;6.42;51.51;102321.50;10057889;29;20584;-84
2022/01/22 22:45:28;;;;;;;51.87;32.40;;;;;;;6.65;50.50;102308.97;10056552;29;20621;-82
2022/01/22 22:50:31;;;;;;;53.77;32.50;;;;;;;6.32;51.79;102325.09;10035971;29;20222;-80
2022/01/22 22:55:34;;;;;;;54.07;33.37;;;;;;;6.31;51.71;102326.22;10055096;29;20322;-81
2022/01/22 23:00:54;;;;;;;48.67;30.03;;;;;;;5.56;53.53;102318.81;10071165;29;20607;-82
2022/01/22 23:05:56;;;;;;;49.47;31.27;;;;;;;5.54;53.37;102335.09;10056080;29;20207;-83
2022/01/22 23:11:04;;;;;;;56.23;31.87;;;;;;;6.45;51.50;102324.63;10056874;29;20893;-83
2022/01/22 23:16:14;;;;;;;51.13;30.20;;;;;;;6.78;50.43;102330.97;10056967;29;20329;-81
2022/01/22 23:21:32;;;;;;;49.23;29.83;;;;;;;6.63;50.48;102344.91;10056140;29;20275;-83
2022/01/22 23:26:35;;;;;;;49.33;29.40;;;;;;;6.28;51.54;102334.31;10056491;29;20289;-83
2022/01/22 23:31:43;;;;;;;46.80;30.07;;;;;;;6.36;51.23;102351.50;10067446;29;20326;-84
2022/01/22 23:58:08;;;;;;;46.10;29.63;;;;;;;6.00;52.34;102366.41;10048733;29;20286;-81
